Time;durP1;ratioP1;P1;durP2;ratioP2;P2;SDS_P1;SDS_P2;PMS_P1;PMS_P2;Temp;Humidity;BMP_temperature;BMP_pressure;BME280_temperature;BME280_humidity;BME280_pressure;Samples;Min_cycle;Max_cycle;Signal;HPM_P1;HPM_P2
2023/05/20 00:00:08;;;;;;;5.28;2.40;;;12.40;99.90;;;;;;4992324;28;20046;-70
2023/05/20 00:02:34;;;;;;;5.43;2.28;;;12.40;99.90;;;;;;4990845;28;20146;-70
2023/05/20 00:04:59;;;;;;;5.50;2.40;;;12.40;99.90;;;;;;4991919;28;20080;-70
2023/05/20 00:07:25;;;;;;;5.75;2.45;;;12.40;99.90;;;;;;4991724;28;20394;-70
2023/05/20 00:09:51;;;;;;;4.90;2.28;;;12.30;99.90;;;;;;4990312;28;20067;-70
2023/05/20 00:12:17;;;;;;;4.72;2.20;;;12.30;99.90;;;;;;4991807;28;20085;-69
2023/05/20 00:14:42;;;;;;;3.67;2.47;;;12.30;99.90;;;;;;4990786;28;20141;-69
2023/05/20 00:17:08;;;;;;;6.95;3.17;;;12.30;99.90;;;;;;4974536;28;20462;-70
2023/05/20 00:19:34;;;;;;;4.47;2.13;;;12.30;99.90;;;;;;4991837;28;20389;-69
2023/05/20 00:22:00;;;;;;;4.57;2.63;;;12.30;99.90;;;;;;4990501;28;20071;-70
2023/05/20 00:24:26;;;;;;;4.65;2.30;;;12.30;99.90;;;;;;4991072;28;20065;-69
2023/05/20 00:26:52;;;;;;;5.70;2.00;;;12.30;99.90;;;;;;4991204;28;20476;-70
2023/05/20 00:29:20;;;;;;;5.25;2.33;;;12.30;99.90;;;;;;4991535;28;20096;-70
2023/05/20 00:31:46;;;;;;;6.15;2.28;;;12.30;99.90;;;;;;4991473;28;20055;-70
2023/05/20 00:34:11;;;;;;;3.10;2.33;;;12.30;99.90;;;;;;4990628;28;20049;-70
2023/05/20 00:36:37;;;;;;;3.50;2.03;;;12.20;99.90;;;;;;4990170;28;20466;-70
2023/05/20 00:39:03;;;;;;;4.95;2.30;;;12.20;99.90;;;;;;4974322;28;20095;-70
2023/05/20 00:41:29;;;;;;;5.32;2.30;;;12.20;99.90;;;;;;4990653;28;20085;-70
2023/05/20 00:43:55;;;;;;;4.47;2.40;;;12.20;99.90;;;;;;4991278;28;20061;-69
2023/05/20 00:46:22;;;;;;;2.17;1.80;;;12.20;99.90;;;;;;4990435;28;20054;-70
2023/05/20 00:48:49;;;;;;;4.18;2.17;;;12.20;99.90;;;;;;4973973;28;20081;-70
2023/05/20 00:51:15;;;;;;;3.83;2.25;;;12.20;99.90;;;;;;4991242;28;20043;-70
2023/05/20 00:53:42;;;;;;;5.90;2.03;;;12.20;99.90;;;;;;4990185;28;20043;-70
2023/05/20 00:56:08;;;;;;;5.60;2.40;;;12.10;99.90;;;;;;4990899;28;20049;-69
2023/05/20 00:58:37;;;;;;;3.30;2.40;;;12.10;99.90;;;;;;4990142;28;20381;-70
2023/05/20 01:01:03;;;;;;;2.47;1.70;;;12.10;99.90;;;;;;4990142;28;20382;-69
2023/05/20 01:03:29;;;;;;;3.97;1.98;;;12.10;99.90;;;;;;4990935;28;20038;-70
2023/05/20 01:05:55;;;;;;;5.53;2.38;;;12.10;99.90;;;;;;4991036;28;20127;-70
2023/05/20 01:08:23;;;;;;;4.82;2.20;;;12.10;99.90;;;;;;4991429;28;20053;-70
2023/05/20 01:10:56;;;;;;;4.32;2.15;;;12.10;99.90;;;;;;4991102;28;20138;-70
2023/05/20 01:13:29;;;;;;;4.03;2.20;;;12.00;99.90;;;;;;4989909;28;20401;-69
2023/05/20 01:15:55;;;;;;;3.15;1.85;;;12.00;99.90;;;;;;4991282;28;20434;-70
2023/05/20 01:18:24;;;;;;;4.75;2.22;;;12.00;99.90;;;;;;4990000;28;20097;-70
2023/05/20 01:20:54;;;;;;;4.03;1.75;;;12.00;99.90;;;;;;4990972;28;20115;-70
2023/05/20 01:23:20;;;;;;;7.00;1.85;;;12.00;99.90;;;;;;4993261;28;20085;-70
2023/05/20 01:25:46;;;;;;;4.88;2.10;;;12.00;99.90;;;;;;4993642;28;20100;-70
2023/05/20 01:28:16;;;;;;;4.18;1.88;;;12.00;99.90;;;;;;4994446;28;20050;-70
2023/05/20 01:30:49;;;;;;;3.53;1.45;;;12.00;99.90;;;;;;4993324;28;20107;-70
2023/05/20 01:33:17;;;;;;;3.92;2.08;;;12.00;99.90;;;;;;4994263;28;20068;-70
2023/05/20 01:35:43;;;;;;;4.78;1.75;;;12.00;99.90;;;;;;4993006;28;20175;-70
2023/05/20 01:38:10;;;;;;;3.85;1.52;;;12.00;99.90;;;;;;4994122;28;20156;-70
2023/05/20 01:40:36;;;;;;;3.55;1.50;;;12.00;99.90;;;;;;4993020;28;20046;-70
2023/05/20 01:43:02;;;;;;;3.95;1.85;;;12.00;99.90;;;;;;4994034;28;20428;-70
2023/05/20 01:45:28;;;;;;;4.43;1.75;;;12.10;99.90;;;;;;4993815;28;20129;-70
2023/05/20 01:47:53;;;;;;;3.22;1.70;;;12.10;99.90;;;;;;4976962;28;20195;-70
2023/05/20 01:50:19;;;;;;;4.43;2.13;;;12.10;99.90;;;;;;4976772;28;20047;-70
2023/05/20 01:52:45;;;;;;;3.60;1.90;;;12.10;99.90;;;;;;4994029;28;20047;-70
2023/05/20 01:55:11;;;;;;;2.33;1.75;;;12.10;99.90;;;;;;4992390;28;20042;-70
2023/05/20 01:57:36;;;;;;;3.15;2.10;;;12.10;99.90;;;;;;4993808;28;20055;-70
2023/05/20 02:00:02;;;;;;;3.80;2.10;;;12.10;99.90;;;;;;4993804;28;20057;-70
2023/05/20 02:02:28;;;;;;;4.35;1.75;;;12.10;99.90;;;;;;4992848;28;20080;-70
2023/05/20 02:04:54;;;;;;;3.35;1.80;;;12.10;99.90;;;;;;4992421;28;20046;-70
2023/05/20 02:07:20;;;;;;;5.70;1.70;;;12.10;99.90;;;;;;4992472;28;20054;-70
2023/05/20 02:09:46;;;;;;;4.47;1.60;;;12.10;99.90;;;;;;4994247;28;20108;-70
2023/05/20 02:12:15;;;;;;;4.10;2.00;;;12.10;99.90;;;;;;4993569;28;20046;-70
2023/05/20 02:14:46;;;;;;;4.32;1.77;;;12.10;99.90;;;;;;4993833;28;20050;-70
2023/05/20 02:17:16;;;;;;;3.97;1.42;;;12.10;99.90;;;;;;4993073;28;20466;-70
2023/05/20 02:19:42;;;;;;;5.60;1.80;;;12.10;99.90;;;;;;4993501;28;20446;-70
2023/05/20 02:22:08;;;;;;;3.85;1.40;;;12.10;99.90;;;;;;4993469;28;20050;-70
2023/05/20 02:24:34;;;;;;;4.97;1.80;;;12.10;99.90;;;;;;4993420;28;20444;-70
2023/05/20 02:27:00;;;;;;;3.08;1.80;;;12.10;99.90;;;;;;4993250;28;20054;-70
2023/05/20 02:29:26;;;;;;;2.92;1.60;;;12.10;99.90;;;;;;4993814;28;20390;-70
2023/05/20 02:31:52;;;;;;;3.10;1.50;;;12.10;99.90;;;;;;4993196;28;20050;-70
2023/05/20 02:34:19;;;;;;;3.65;1.40;;;12.10;99.90;;;;;;4992712;28;20046;-70
2023/05/20 02:36:45;;;;;;;6.82;1.70;;;12.00;99.90;;;;;;4993069;28;20080;-70
2023/05/20 02:39:11;;;;;;;3.97;1.33;;;12.00;99.90;;;;;;4991942;28;20071;-70
2023/05/20 02:41:37;;;;;;;2.13;1.38;;;12.00;99.90;;;;;;4991983;28;20052;-70
2023/05/20 02:44:03;;;;;;;4.47;1.75;;;12.00;99.90;;;;;;4992915;28;20112;-70
2023/05/20 02:46:28;;;;;;;2.17;1.40;;;12.00;99.90;;;;;;4992940;28;20082;-71
2023/05/20 02:48:54;;;;;;;4.40;1.33;;;11.90;99.90;;;;;;4992959;28;20046;-70
2023/05/20 02:51:20;;;;;;;2.90;1.50;;;11.90;99.90;;;;;;4992869;28;20052;-70
2023/05/20 02:53:46;;;;;;;3.58;1.33;;;11.90;99.90;;;;;;4992490;28;20046;-70
2023/05/20 02:56:12;;;;;;;3.25;1.52;;;11.90;99.90;;;;;;4992823;28;20081;-70
2023/05/20 02:58:38;;;;;;;3.33;1.45;;;11.90;99.90;;;;;;4991542;28;20418;-70
2023/05/20 03:01:04;;;;;;;3.92;1.52;;;11.90;99.90;;;;;;4992756;28;20054;-70
2023/05/20 03:03:30;;;;;;;2.53;1.10;;;11.90;99.90;;;;;;4991641;28;20440;-70
2023/05/20 03:05:56;;;;;;;2.22;1.20;;;11.90;99.90;;;;;;4993211;28;20050;-70
2023/05/20 03:08:22;;;;;;;2.53;1.25;;;11.90;99.90;;;;;;4992549;28;20049;-69
2023/05/20 03:10:48;;;;;;;1.88;1.20;;;11.90;99.90;;;;;;4992278;28;20494;-70
2023/05/20 03:13:14;;;;;;;4.47;1.48;;;11.90;99.90;;;;;;4992513;28;20046;-70
2023/05/20 03:15:41;;;;;;;2.17;1.10;;;11.90;99.90;;;;;;4992517;28;20077;-70
2023/05/20 03:18:07;;;;;;;2.50;1.17;;;11.90;99.90;;;;;;4992494;28;20100;-70
2023/05/20 03:20:37;;;;;;;4.40;1.30;;;11.90;99.90;;;;;;4992448;28;20113;-70
2023/05/20 03:23:06;;;;;;;3.60;1.20;;;11.90;99.90;;;;;;4991998;28;20490;-70
2023/05/20 03:25:32;;;;;;;2.35;1.23;;;11.90;99.90;;;;;;4991697;28;20050;-70
2023/05/20 03:27:58;;;;;;;3.25;1.00;;;11.90;99.90;;;;;;4991585;28;20046;-70
2023/05/20 03:30:25;;;;;;;3.30;1.00;;;11.90;99.90;;;;;;4992845;28;20050;-70
2023/05/20 03:32:50;;;;;;;4.75;1.25;;;11.90;99.90;;;;;;4992231;28;20050;-70
2023/05/20 03:35:16;;;;;;;3.33;1.02;;;11.90;99.90;;;;;;4992303;28;20516;-70
2023/05/20 03:37:42;;;;;;;2.28;1.10;;;11.90;99.90;;;;;;4992703;28;20046;-71
2023/05/20 03:40:09;;;;;;;3.30;1.17;;;11.90;99.90;;;;;;4991996;28;20163;-70
2023/05/20 03:42:36;;;;;;;3.15;1.00;;;11.90;99.90;;;;;;4993484;28;20057;-70
2023/05/20 03:45:02;;;;;;;1.52;0.90;;;11.90;99.90;;;;;;4989965;28;20054;-70
2023/05/20 03:47:28;;;;;;;3.15;1.08;;;11.90;99.90;;;;;;4992579;28;20042;-70
2023/05/20 03:49:54;;;;;;;1.88;1.17;;;11.90;99.90;;;;;;4990581;28;20512;-70
2023/05/20 03:52:20;;;;;;;1.52;0.90;;;11.90;99.90;;;;;;4991992;28;20055;-70
2023/05/20 03:54:46;;;;;;;3.08;1.00;;;11.90;99.90;;;;;;4991956;28;20046;-71
2023/05/20 03:57:11;;;;;;;1.77;0.98;;;11.90;99.90;;;;;;4991845;28;20047;-70
2023/05/20 03:59:37;;;;;;;3.42;0.95;;;11.90;99.90;;;;;;4974802;28;20103;-70
2023/05/20 04:02:04;;;;;;;1.80;0.95;;;11.90;99.90;;;;;;4991933;28;20060;-70
2023/05/20 04:04:31;;;;;;;1.20;0.75;;;11.90;99.90;;;;;;4991710;28;20042;-70
2023/05/20 04:06:59;;;;;;;1.20;0.80;;;11.90;99.90;;;;;;4991754;28;20060;-70
2023/05/20 04:09:25;;;;;;;1.20;0.70;;;11.90;99.90;;;;;;4990543;28;20046;-70
2023/05/20 04:11:51;;;;;;;3.00;0.80;;;11.90;99.90;;;;;;4991786;28;20046;-70
2023/05/20 04:14:18;;;;;;;2.17;0.90;;;11.90;99.90;;;;;;4991014;28;20144;-70
2023/05/20 04:16:44;;;;;;;2.80;1.00;;;11.90;99.90;;;;;;4991741;28;20532;-70
2023/05/20 04:19:11;;;;;;;2.38;0.82;;;11.90;99.90;;;;;;4990616;28;20057;-70
2023/05/20 04:21:37;;;;;;;2.03;0.93;;;11.80;99.90;;;;;;4991637;28;20077;-70
2023/05/20 04:24:03;;;;;;;2.72;0.80;;;11.80;99.90;;;;;;4991545;28;20108;-70
2023/05/20 04:26:28;;;;;;;3.30;0.90;;;11.80;99.90;;;;;;4991827;28;20475;-71
2023/05/20 04:28:57;;;;;;;1.33;0.80;;;11.90;99.90;;;;;;4991679;28;20058;-70
2023/05/20 04:31:27;;;;;;;1.65;0.70;;;11.90;99.90;;;;;;4991319;28;20104;-70
2023/05/20 04:33:53;;;;;;;1.10;0.70;;;11.80;99.90;;;;;;4990228;28;20047;-70
2023/05/20 04:36:19;;;;;;;3.45;0.70;;;11.80;99.90;;;;;;4991146;28;20050;-71
2023/05/20 04:38:46;;;;;;;1.67;0.65;;;11.80;99.90;;;;;;4991391;28;20051;-70
2023/05/20 04:41:11;;;;;;;2.58;0.70;;;11.80;99.90;;;;;;4991384;28;20129;-70
2023/05/20 04:43:38;;;;;;;2.17;0.80;;;11.80;99.90;;;;;;4991329;28;20133;-70
2023/05/20 04:46:04;;;;;;;3.03;0.75;;;11.80;99.90;;;;;;4992288;28;20072;-70
2023/05/20 04:48:31;;;;;;;2.92;1.10;;;11.90;99.90;;;;;;4990946;28;20053;-70
2023/05/20 04:50:57;;;;;;;1.48;0.70;;;11.90;99.90;;;;;;4991481;28;20042;-70
2023/05/20 04:53:23;;;;;;;1.90;0.80;;;11.90;99.90;;;;;;4991742;28;20129;-70
2023/05/20 04:55:52;;;;;;;2.20;0.88;;;12.00;99.90;;;;;;4991847;28;20057;-72
2023/05/20 04:58:19;;;;;;;1.80;0.65;;;12.00;99.90;;;;;;4993453;28;20478;-70
2023/05/20 05:00:45;;;;;;;2.42;0.88;;;12.10;99.90;;;;;;4993463;28;20068;-70
2023/05/20 05:03:11;;;;;;;2.00;0.70;;;12.10;99.90;;;;;;4995075;28;20050;-70
2023/05/20 05:05:40;;;;;;;3.17;0.85;;;12.10;99.90;;;;;;4994521;28;20046;-70
2023/05/20 05:08:07;;;;;;;2.97;0.90;;;12.10;99.90;;;;;;4994279;28;20056;-70
2023/05/20 05:10:33;;;;;;;1.52;0.80;;;12.20;99.90;;;;;;4993456;28;20055;-70
2023/05/20 05:12:59;;;;;;;2.45;0.70;;;12.20;99.90;;;;;;4993226;28;20051;-70
2023/05/20 05:15:25;;;;;;;1.90;0.70;;;12.20;99.90;;;;;;4994635;28;20071;-70
2023/05/20 05:17:51;;;;;;;1.88;0.70;;;12.20;99.90;;;;;;4995137;28;20415;-70
2023/05/20 05:20:17;;;;;;;1.02;0.60;;;12.20;99.90;;;;;;4994351;28;20153;-71
2023/05/20 05:22:43;;;;;;;1.23;0.68;;;12.20;99.90;;;;;;4994208;28;20046;-71
2023/05/20 05:25:10;;;;;;;2.10;0.77;;;12.20;99.90;;;;;;4994121;28;20050;-72
2023/05/20 05:27:35;;;;;;;1.98;0.60;;;12.20;99.90;;;;;;4994112;28;20046;-70
2023/05/20 05:30:02;;;;;;;5.07;0.90;;;12.20;99.90;;;;;;4994147;28;20053;-70
2023/05/20 05:32:28;;;;;;;1.40;0.60;;;12.20;99.90;;;;;;4994112;28;20054;-71
2023/05/20 05:34:54;;;;;;;3.45;0.85;;;12.20;99.90;;;;;;4994071;28;20520;-71
2023/05/20 05:37:20;;;;;;;1.88;0.73;;;12.20;99.90;;;;;;4993123;28;20050;-70
2023/05/20 05:39:46;;;;;;;1.90;0.50;;;12.20;99.90;;;;;;4992847;28;20046;-70
2023/05/20 05:42:11;;;;;;;1.10;0.60;;;12.20;99.90;;;;;;4993958;28;20080;-71
2023/05/20 05:44:37;;;;;;;2.05;0.70;;;12.20;99.90;;;;;;4994665;28;20107;-70
2023/05/20 05:47:04;;;;;;;1.38;0.60;;;12.20;99.90;;;;;;4993619;28;20214;-71
2023/05/20 05:49:30;;;;;;;2.08;0.60;;;12.20;99.90;;;;;;4994385;28;20046;-70
2023/05/20 05:51:56;;;;;;;2.25;0.60;;;12.20;99.90;;;;;;4995201;28;20062;-72
2023/05/20 05:54:21;;;;;;;1.38;0.70;;;12.20;99.90;;;;;;4994003;28;20046;-70
2023/05/20 05:56:47;;;;;;;2.92;0.60;;;12.20;99.90;;;;;;4993618;28;20050;-72
2023/05/20 05:59:14;;;;;;;2.17;0.70;;;12.20;99.90;;;;;;4993694;28;20046;-70
2023/05/20 06:01:40;;;;;;;1.48;0.70;;;12.20;99.90;;;;;;4993338;28;20053;-70
2023/05/20 06:04:05;;;;;;;1.00;0.50;;;12.20;99.90;;;;;;4993790;28;20043;-70
2023/05/20 06:06:32;;;;;;;1.08;0.65;;;12.20;99.90;;;;;;4994082;28;20051;-77
2023/05/20 06:08:58;;;;;;;0.95;0.50;;;12.20;99.90;;;;;;4992946;28;20498;-71
2023/05/20 06:11:23;;;;;;;1.33;0.70;;;12.20;99.90;;;;;;4993527;28;20055;-70
2023/05/20 06:13:49;;;;;;;0.80;0.55;;;12.30;99.90;;;;;;4993038;28;20104;-70
2023/05/20 06:16:15;;;;;;;1.38;0.60;;;12.20;99.90;;;;;;4993118;28;20561;-71
2023/05/20 06:18:41;;;;;;;1.92;0.60;;;12.20;99.90;;;;;;4992431;28;20184;-71
2023/05/20 06:21:07;;;;;;;1.08;0.65;;;12.30;99.90;;;;;;4992724;28;20065;-72
2023/05/20 06:23:33;;;;;;;1.33;0.60;;;12.30;99.90;;;;;;4991981;28;20053;-71
2023/05/20 06:25:59;;;;;;;1.38;0.60;;;12.30;99.90;;;;;;4993283;28;20047;-71
2023/05/20 06:28:26;;;;;;;1.73;0.60;;;12.40;99.90;;;;;;4992137;28;20047;-75
2023/05/20 06:30:54;;;;;;;2.78;0.77;;;12.40;99.90;;;;;;4993599;28;20363;-71
2023/05/20 06:33:24;;;;;;;2.88;0.63;;;12.40;99.90;;;;;;4993963;28;20069;-71
2023/05/20 06:35:51;;;;;;;1.85;0.63;;;12.40;99.90;;;;;;4993206;28;20050;-70
2023/05/20 06:38:17;;;;;;;1.23;0.60;;;12.40;99.90;;;;;;4993205;28;20085;-71
2023/05/20 06:40:43;;;;;;;1.95;0.85;;;12.50;99.90;;;;;;4993139;28;20078;-72
2023/05/20 06:43:08;;;;;;;1.63;0.60;;;12.50;99.90;;;;;;4992124;28;20067;-71
2023/05/20 06:45:34;;;;;;;1.08;0.50;;;12.50;99.90;;;;;;4991771;28;20049;-71
2023/05/20 06:47:59;;;;;;;2.08;0.70;;;12.60;99.90;;;;;;4993986;28;20051;-70
2023/05/20 06:50:27;;;;;;;1.95;0.60;;;12.60;99.90;;;;;;4991775;28;20054;-70
2023/05/20 06:52:53;;;;;;;0.75;0.60;;;12.60;99.90;;;;;;4991761;28;20129;-71
2023/05/20 06:55:19;;;;;;;1.52;0.70;;;12.60;99.90;;;;;;4993315;28;20046;-72
2023/05/20 06:57:45;;;;;;;2.70;0.90;;;12.70;99.90;;;;;;4993825;28;20084;-70
2023/05/20 07:00:12;;;;;;;1.25;0.70;;;12.70;99.90;;;;;;4992144;28;20494;-75
2023/05/20 07:02:39;;;;;;;2.17;0.63;;;12.80;99.90;;;;;;4992894;28;20455;-71
2023/05/20 07:05:05;;;;;;;1.20;0.63;;;12.80;99.90;;;;;;4991626;28;20050;-70
2023/05/20 07:07:31;;;;;;;2.70;0.82;;;12.90;99.90;;;;;;4993116;28;20062;-70
2023/05/20 07:09:57;;;;;;;0.98;0.70;;;12.90;99.90;;;;;;4991903;28;20161;-70
2023/05/20 07:12:23;;;;;;;2.30;0.70;;;13.00;99.90;;;;;;4993339;28;20493;-70
2023/05/20 07:14:48;;;;;;;0.98;0.68;;;13.00;99.90;;;;;;4992738;28;20050;-70
2023/05/20 07:17:14;;;;;;;1.08;0.70;;;13.10;99.90;;;;;;4992752;28;20054;-70
2023/05/20 07:19:40;;;;;;;1.42;0.60;;;13.10;99.90;;;;;;4992620;28;20133;-71
2023/05/20 07:22:06;;;;;;;0.90;0.60;;;13.20;99.90;;;;;;4992579;28;20054;-70
2023/05/20 07:24:31;;;;;;;1.23;0.70;;;13.30;99.90;;;;;;4992899;28;20058;-71
2023/05/20 07:26:57;;;;;;;1.20;0.60;;;13.40;99.90;;;;;;4992410;28;20505;-71
2023/05/20 07:29:23;;;;;;;2.20;0.70;;;13.40;99.90;;;;;;4992510;28;20046;-71
2023/05/20 07:31:49;;;;;;;1.83;0.68;;;13.50;99.90;;;;;;4992492;28;20133;-71
2023/05/20 07:34:14;;;;;;;1.00;0.70;;;13.60;99.90;;;;;;4992179;28;20047;-71
2023/05/20 07:36:40;;;;;;;3.55;0.70;;;13.60;99.90;;;;;;4993580;28;20050;-72
2023/05/20 07:39:07;;;;;;;3.13;0.80;;;13.70;99.90;;;;;;4994225;28;20050;-70
2023/05/20 07:41:33;;;;;;;2.25;0.80;;;13.70;99.90;;;;;;4993014;28;20121;-70
2023/05/20 07:44:01;;;;;;;1.55;0.77;;;13.80;99.90;;;;;;4992214;28;20130;-70
2023/05/20 07:46:26;;;;;;;2.25;0.77;;;13.80;99.90;;;;;;4992291;28;20046;-70
2023/05/20 07:48:52;;;;;;;1.48;0.80;;;13.90;99.90;;;;;;4992253;28;20046;-71
2023/05/20 07:51:18;;;;;;;3.65;0.80;;;13.90;99.90;;;;;;4991002;28;20057;-72
2023/05/20 07:53:44;;;;;;;2.00;0.80;;;14.00;99.90;;;;;;4992180;28;20046;-71
2023/05/20 07:56:10;;;;;;;1.70;0.90;;;14.00;99.90;;;;;;4992082;28;20053;-70
2023/05/20 07:58:36;;;;;;;1.58;0.90;;;14.10;99.90;;;;;;4991945;28;20046;-71
2023/05/20 08:01:02;;;;;;;1.50;0.70;;;14.10;99.90;;;;;;4997124;28;20050;-71
2023/05/20 08:03:27;;;;;;;1.63;0.70;;;14.20;99.90;;;;;;4993309;28;20062;-71
2023/05/20 08:05:53;;;;;;;3.20;1.10;;;14.20;99.90;;;;;;4992532;28;20055;-71
2023/05/20 08:08:19;;;;;;;1.35;0.80;;;14.30;99.90;;;;;;4991850;28;20086;-72
2023/05/20 08:10:44;;;;;;;1.63;0.80;;;14.40;99.90;;;;;;4991841;28;20070;-72
2023/05/20 08:13:10;;;;;;;2.67;0.70;;;14.40;99.90;;;;;;4990843;28;20050;-71
2023/05/20 08:15:36;;;;;;;4.15;0.93;;;14.40;99.90;;;;;;4991329;28;20046;-71
2023/05/20 08:18:02;;;;;;;2.63;1.00;;;14.50;99.90;;;;;;4991837;28;20086;-73
2023/05/20 08:20:28;;;;;;;3.22;1.10;;;14.50;99.90;;;;;;4991801;28;20482;-73
2023/05/20 08:22:54;;;;;;;3.03;1.00;;;14.50;99.90;;;;;;4991729;28;20050;-72
2023/05/20 08:25:20;;;;;;;2.72;0.90;;;14.60;99.90;;;;;;4992024;28;20440;-73
2023/05/20 08:27:45;;;;;;;4.75;1.15;;;14.70;99.90;;;;;;4992129;28;20501;-71
2023/05/20 08:30:11;;;;;;;1.63;0.90;;;14.80;99.90;;;;;;4991430;28;20053;-71
2023/05/20 08:32:37;;;;;;;1.67;1.00;;;14.80;99.90;;;;;;4991866;28;20067;-71
2023/05/20 08:35:04;;;;;;;1.35;1.10;;;14.90;99.90;;;;;;4992392;28;20084;-70
2023/05/20 08:37:29;;;;;;;3.15;1.05;;;14.90;99.90;;;;;;4991278;28;20064;-71
2023/05/20 08:39:55;;;;;;;1.83;0.80;;;15.00;99.90;;;;;;4990368;28;20109;-71
2023/05/20 08:42:23;;;;;;;2.30;0.95;;;15.10;99.90;;;;;;4991745;28;20053;-71
2023/05/20 08:44:51;;;;;;;1.70;1.08;;;15.20;99.90;;;;;;4991336;28;20057;-72
2023/05/20 08:47:18;;;;;;;2.63;1.00;;;15.20;99.90;;;;;;4992233;28;20062;-74
2023/05/20 08:49:44;;;;;;;1.85;1.17;;;15.30;99.90;;;;;;4991318;28;20065;-72
2023/05/20 08:52:12;;;;;;;2.22;0.90;;;15.30;99.90;;;;;;4991410;28;20046;-71
2023/05/20 08:54:47;;;;;;;2.50;0.98;;;15.40;99.90;;;;;;4991048;28;20482;-70
2023/05/20 08:57:12;;;;;;;1.55;1.00;;;15.50;99.90;;;;;;4992359;28;20093;-73
2023/05/20 08:59:48;;;;;;;1.70;1.00;;;15.50;99.90;;;;;;4991429;28;20495;-70
2023/05/20 09:02:14;;;;;;;1.67;1.00;;;15.50;99.90;;;;;;4990597;28;20564;-72
2023/05/20 09:04:39;;;;;;;3.08;0.90;;;15.60;99.90;;;;;;4991083;28;20042;-71
2023/05/20 09:07:05;;;;;;;1.83;0.98;;;15.70;99.90;;;;;;4992606;28;20054;-71
2023/05/20 09:09:33;;;;;;;2.63;1.00;;;15.70;99.90;;;;;;4991917;28;20493;-72
2023/05/20 09:12:00;;;;;;;2.15;1.30;;;15.80;99.90;;;;;;4991063;28;20050;-72
2023/05/20 09:14:28;;;;;;;2.03;1.20;;;15.90;99.90;;;;;;4990092;28;20090;-73
2023/05/20 09:16:54;;;;;;;1.50;1.00;;;15.90;99.90;;;;;;4990422;28;20047;-71
2023/05/20 09:19:22;;;;;;;1.52;1.17;;;16.00;99.90;;;;;;4991799;28;20115;-72
2023/05/20 09:21:47;;;;;;;3.10;1.10;;;16.10;99.90;;;;;;4989950;28;20062;-73
2023/05/20 09:24:13;;;;;;;2.03;0.90;;;16.00;99.90;;;;;;4990728;28;20127;-70
2023/05/20 09:26:39;;;;;;;1.95;1.35;;;16.10;99.90;;;;;;4990594;28;20058;-71
2023/05/20 09:29:07;;;;;;;4.00;1.10;;;16.10;99.90;;;;;;4991201;28;20500;-73
2023/05/20 09:31:33;;;;;;;3.88;1.10;;;16.20;99.90;;;;;;4989628;28;20053;-71
2023/05/20 09:34:02;;;;;;;2.17;1.13;;;16.20;99.90;;;;;;4991580;28;20492;-70
2023/05/20 09:36:33;;;;;;;3.35;1.10;;;16.30;99.90;;;;;;4990668;28;20074;-71
2023/05/20 09:39:04;;;;;;;4.85;1.20;;;16.30;99.90;;;;;;4991641;28;20386;-74
2023/05/20 09:41:43;;;;;;;2.28;1.15;;;16.40;99.90;;;;;;4991022;28;20107;-70
2023/05/20 09:44:11;;;;;;;1.85;0.98;;;16.50;99.90;;;;;;4993595;28;20042;-71
2023/05/20 09:46:39;;;;;;;1.92;1.20;;;16.50;99.90;;;;;;4993685;28;20046;-71
2023/05/20 09:49:06;;;;;;;2.75;1.13;;;16.60;99.90;;;;;;4994224;28;20101;-69
2023/05/20 09:51:33;;;;;;;1.85;1.00;;;16.60;99.90;;;;;;4993546;28;20436;-70
2023/05/20 09:54:02;;;;;;;2.45;1.17;;;16.70;99.90;;;;;;4992779;28;20479;-73
2023/05/20 09:56:29;;;;;;;3.60;1.00;;;16.80;99.90;;;;;;4993724;28;20043;-71
2023/05/20 09:58:58;;;;;;;2.45;1.00;;;16.80;99.90;;;;;;4993854;28;20498;-70
2023/05/20 10:01:24;;;;;;;2.55;1.20;;;16.90;99.90;;;;;;4993742;28;20054;-70
2023/05/20 10:03:51;;;;;;;3.38;1.10;;;16.90;99.90;;;;;;4993978;28;20046;-71
2023/05/20 10:06:34;;;;;;;1.65;1.17;;;16.90;99.90;;;;;;4993707;28;20054;-70
2023/05/20 10:09:18;;;;;;;2.63;1.30;;;17.00;99.90;;;;;;4993019;28;20054;-71
2023/05/20 10:12:08;;;;;;;2.10;1.00;;;17.00;99.90;;;;;;4994324;28;20363;-71
2023/05/20 10:14:54;;;;;;;2.67;1.20;;;17.00;99.90;;;;;;4995503;28;20098;-71
2023/05/20 10:17:20;;;;;;;1.52;1.00;;;17.10;99.90;;;;;;4993557;28;20046;-70
2023/05/20 10:19:46;;;;;;;1.35;1.00;;;17.20;99.90;;;;;;4993464;28;20095;-72
2023/05/20 10:22:12;;;;;;;2.25;1.00;;;17.30;99.90;;;;;;4993393;28;20058;-70
2023/05/20 10:24:43;;;;;;;1.98;1.00;;;17.30;99.90;;;;;;4991827;28;20068;-70
2023/05/20 10:27:10;;;;;;;1.80;0.80;;;17.30;99.90;;;;;;4993201;28;20058;-70
2023/05/20 10:29:50;;;;;;;3.25;1.00;;;17.30;99.90;;;;;;4993609;28;20050;-70
2023/05/20 10:32:30;;;;;;;1.73;0.82;;;17.30;99.90;;;;;;4993550;28;20382;-70
2023/05/20 10:35:04;;;;;;;3.42;1.00;;;17.30;99.90;;;;;;4993266;28;20121;-69
2023/05/20 10:37:40;;;;;;;1.65;0.98;;;17.30;99.90;;;;;;4993734;28;20061;-72
2023/05/20 10:40:07;;;;;;;2.05;1.08;;;17.40;99.90;;;;;;4992787;28;20450;-71
2023/05/20 10:42:33;;;;;;;2.10;1.00;;;17.40;99.90;;;;;;4993167;28;20038;-71
2023/05/20 10:44:59;;;;;;;1.42;0.90;;;17.40;99.90;;;;;;4993058;28;20516;-71
2023/05/20 10:47:24;;;;;;;1.73;0.82;;;17.30;99.90;;;;;;4992054;28;20054;-71
2023/05/20 10:49:51;;;;;;;1.20;0.82;;;17.30;99.90;;;;;;4993050;28;20134;-71
2023/05/20 10:52:17;;;;;;;1.48;0.80;;;17.50;99.90;;;;;;4993293;28;20038;-70
2023/05/20 10:54:54;;;;;;;3.00;0.90;;;17.50;99.90;;;;;;4992454;28;20141;-70
2023/05/20 10:57:20;;;;;;;0.82;0.60;;;17.60;99.90;;;;;;4992933;28;20076;-72
2023/05/20 10:59:47;;;;;;;1.33;0.70;;;17.70;99.90;;;;;;4993233;28;20404;-70
2023/05/20 11:02:15;;;;;;;1.92;0.80;;;17.80;99.90;;;;;;4993002;28;20086;-70
2023/05/20 11:04:45;;;;;;;1.40;0.88;;;18.00;99.90;;;;;;4992670;28;20039;-71
2023/05/20 11:07:12;;;;;;;2.20;0.93;;;18.10;99.90;;;;;;4992812;28;20042;-70
2023/05/20 11:09:38;;;;;;;1.73;0.80;;;18.20;99.90;;;;;;4993618;28;20420;-71
2023/05/20 11:12:05;;;;;;;1.00;0.70;;;18.30;99.90;;;;;;4992731;28;20046;-71
2023/05/20 11:14:30;;;;;;;1.25;0.70;;;18.30;99.90;;;;;;4993134;28;20053;-70
2023/05/20 11:16:58;;;;;;;0.98;0.70;;;18.30;99.90;;;;;;4975178;28;20054;-74
2023/05/20 11:19:26;;;;;;;1.10;1.00;;;18.40;99.90;;;;;;4992752;28;20151;-71
2023/05/20 11:21:52;;;;;;;1.92;0.70;;;18.40;99.90;;;;;;4994311;28;20389;-71
2023/05/20 11:24:26;;;;;;;1.67;0.60;;;18.50;99.90;;;;;;4991173;28;20054;-71
2023/05/20 11:26:53;;;;;;;2.70;0.80;;;18.50;99.90;;;;;;4992886;28;20058;-71
2023/05/20 11:29:20;;;;;;;0.98;0.65;;;18.50;99.90;;;;;;4992442;28;20129;-71
2023/05/20 11:31:50;;;;;;;1.98;0.75;;;18.50;99.90;;;;;;4992422;28;20054;-71
2023/05/20 11:34:20;;;;;;;2.53;0.80;;;18.50;99.90;;;;;;4993252;28;20386;-71
2023/05/20 11:36:46;;;;;;;2.45;0.90;;;18.60;99.90;;;;;;4992714;28;20050;-71
2023/05/20 11:39:13;;;;;;;5.55;0.88;;;18.70;99.90;;;;;;4992281;28;20101;-72
2023/05/20 11:41:41;;;;;;;1.50;0.90;;;18.70;99.90;;;;;;4992275;28;20050;-71
2023/05/20 11:44:13;;;;;;;1.40;0.70;;;18.90;99.90;;;;;;4990640;28;20474;-72
2023/05/20 11:46:44;;;;;;;2.47;0.90;;;18.90;99.90;;;;;;4991246;28;20058;-71
2023/05/20 11:49:12;;;;;;;1.38;0.73;;;18.60;99.90;;;;;;5007034;28;20525;-72
2023/05/20 11:51:38;;;;;;;3.20;0.95;;;18.90;99.90;;;;;;4992586;28;20058;-73
2023/05/20 11:54:06;;;;;;;1.42;0.70;;;18.80;99.90;;;;;;4991208;28;20046;-71
2023/05/20 11:56:36;;;;;;;1.20;0.60;;;18.90;99.90;;;;;;4991877;28;20051;-70
2023/05/20 11:59:04;;;;;;;1.88;0.90;;;18.90;99.90;;;;;;4991713;28;20574;-71
2023/05/20 12:01:39;;;;;;;1.27;0.85;;;19.00;99.90;;;;;;4992996;28;20053;-71
2023/05/20 12:04:06;;;;;;;1.45;0.98;;;19.00;99.90;;;;;;4992579;28;20450;-71
2023/05/20 12:06:32;;;;;;;2.50;0.93;;;19.10;99.90;;;;;;4991584;28;20090;-76
2023/05/20 12:09:05;;;;;;;2.65;0.93;;;19.10;99.90;;;;;;4992741;28;20085;-73
2023/05/20 12:11:34;;;;;;;3.05;1.00;;;19.10;99.50;;;;;;4991815;28;20050;-73
2023/05/20 12:14:01;;;;;;;1.38;0.88;;;19.10;99.40;;;;;;4991766;28;20058;-72
2023/05/20 12:16:27;;;;;;;3.53;1.23;;;19.10;99.40;;;;;;4991698;28;20083;-72
2023/05/20 12:18:53;;;;;;;2.20;0.95;;;19.00;99.30;;;;;;4991804;28;20046;-74
2023/05/20 12:21:19;;;;;;;2.28;0.90;;;19.10;99.30;;;;;;4990656;28;20083;-71
2023/05/20 12:23:45;;;;;;;1.73;0.88;;;19.00;99.00;;;;;;4990252;28;20069;-71
2023/05/20 12:26:11;;;;;;;1.58;0.88;;;19.00;98.70;;;;;;4974929;28;20372;-72
2023/05/20 12:28:37;;;;;;;2.17;0.88;;;18.90;98.20;;;;;;4991686;28;20103;-72
2023/05/20 12:31:03;;;;;;;3.05;0.93;;;18.90;98.40;;;;;;4991545;28;20133;-71
2023/05/20 12:33:28;;;;;;;5.78;1.55;;;18.80;98.70;;;;;;4991895;28;20054;-71
2023/05/20 12:35:54;;;;;;;4.57;1.05;;;18.80;98.70;;;;;;4991285;28;20390;-71
2023/05/20 12:38:20;;;;;;;2.22;0.90;;;18.70;99.20;;;;;;4990735;28;20042;-72
2023/05/20 12:40:45;;;;;;;1.55;0.90;;;18.70;99.40;;;;;;4974157;28;20058;-72
2023/05/20 12:43:11;;;;;;;1.23;0.90;;;18.70;99.80;;;;;;4991368;28;20035;-73
2023/05/20 12:45:37;;;;;;;2.28;0.90;;;18.70;99.90;;;;;;4990990;28;20085;-72